Time;durP1;ratioP1;P1;durP2;ratioP2;P2;SDS_P1;SDS_P2;PMS_P1;PMS_P2;Temp;Humidity;BMP_temperature;BMP_pressure;BME280_temperature;BME280_humidity;BME280_pressure;Samples;Min_cycle;Max_cycle;Signal;HPM_P1;HPM_P2
2021/07/24 00:03:31;;;;;;;15.38;12.02;;;;;;;17.42;58.05;99456.44;10347870;28;20493;-60
2021/07/24 00:08:34;;;;;;;16.33;12.32;;;;;;;17.14;58.21;99432.75;10342450;28;20082;-60
2021/07/24 00:13:37;;;;;;;13.80;11.63;;;;;;;17.04;58.90;99430.09;10350838;28;20251;-60
2021/07/24 00:18:39;;;;;;;15.07;11.43;;;;;;;17.20;58.69;99435.59;10345740;28;20097;-60
2021/07/24 00:23:41;;;;;;;15.60;11.80;;;;;;;17.31;58.58;99432.78;10350459;28;20128;-60
2021/07/24 00:28:43;;;;;;;14.82;12.00;;;;;;;17.36;58.14;99419.16;10358429;28;20046;-60
2021/07/24 00:33:44;;;;;;;15.23;11.73;;;;;;;17.37;57.85;99419.03;10360673;28;20042;-60
2021/07/24 00:38:46;;;;;;;16.65;11.80;;;;;;;17.37;58.08;99418.19;10360932;28;20141;-60
2021/07/24 00:43:50;;;;;;;16.65;13.20;;;;;;;16.91;58.30;99406.69;10359796;28;20149;-60
2021/07/24 00:48:53;;;;;;;14.25;11.95;;;;;;;16.65;59.24;99400.34;10345360;28;20755;-60
2021/07/24 00:53:55;;;;;;;18.10;12.45;;;;;;;16.84;59.26;99399.44;10340109;28;20056;-60
2021/07/24 00:58:58;;;;;;;20.25;11.65;;;;;;;16.99;58.50;99390.94;10357767;28;20050;-60
2021/07/24 01:04:00;;;;;;;14.07;11.60;;;;;;;16.86;58.91;99389.56;10357855;28;20078;-60
2021/07/24 01:09:02;;;;;;;18.20;13.40;;;;;;;16.57;59.28;99376.47;10349299;28;20073;-60
2021/07/24 01:14:04;;;;;;;16.38;13.27;;;;;;;16.44;59.84;99375.09;10343010;28;20049;-60
2021/07/24 01:19:06;;;;;;;14.00;12.13;;;;;;;16.62;59.60;99378.69;10359482;28;20046;-60
2021/07/24 01:24:07;;;;;;;16.70;12.30;;;;;;;16.71;59.53;99383.13;10326874;28;20074;-60
2021/07/24 01:29:20;;;;;;;14.57;12.35;;;;;;;16.57;59.56;99389.66;10342297;28;20060;-60
2021/07/24 01:34:22;;;;;;;17.05;13.30;;;;;;;16.59;59.82;99381.63;10358706;28;20050;-60
2021/07/24 01:39:25;;;;;;;14.95;11.82;;;;;;;16.64;59.57;99387.28;10356005;28;20050;-60
2021/07/24 01:44:26;;;;;;;16.98;12.00;;;;;;;16.73;59.59;99410.22;10334379;28;20054;-60
2021/07/24 01:54:54;;;;;;;16.83;13.00;;;;;;;16.00;60.40;99394.97;10356618;28;20121;-60
2021/07/24 02:00:06;;;;;;;15.18;13.00;;;;;;;16.19;60.72;99387.91;10347800;28;20125;-60
2021/07/24 02:05:32;;;;;;;14.57;13.02;;;;;;;16.15;60.78;99377.75;10348015;28;20124;-60
2021/07/24 02:10:35;;;;;;;18.05;11.90;;;;;;;16.15;60.78;99373.31;10351653;28;20140;-60
2021/07/24 02:15:37;;;;;;;16.10;12.40;;;;;;;16.33;60.48;99369.94;10362581;28;20470;-60
2021/07/24 02:20:41;;;;;;;16.42;13.75;;;;;;;16.18;60.28;99366.94;10364295;28;20120;-60
2021/07/24 02:25:44;;;;;;;18.42;14.35;;;;;;;15.86;61.26;99351.38;10361290;28;20133;-60
2021/07/24 02:30:46;;;;;;;18.48;15.02;;;;;;;15.82;61.60;99350.00;10357058;28;20461;-60
2021/07/24 02:35:49;;;;;;;18.15;14.55;;;;;;;15.88;61.58;99354.72;10348415;28;20406;-60
2021/07/24 02:40:51;;;;;;;19.45;15.65;;;;;;;15.65;62.17;99332.25;10366031;28;20042;-60
2021/07/24 02:45:53;;;;;;;17.25;12.85;;;;;;;15.67;62.26;99338.22;10376548;28;20129;-60
2021/07/24 02:50:55;;;;;;;18.17;13.93;;;;;;;15.77;62.06;99325.03;10356475;28;20097;-60
2021/07/24 02:55:56;;;;;;;17.02;13.93;;;;;;;15.76;62.12;99313.63;10350474;28;20117;-60
2021/07/24 03:00:58;;;;;;;18.00;15.20;;;;;;;15.72;62.25;99320.16;10336664;28;20126;-59
2021/07/24 03:06:00;;;;;;;18.52;13.88;;;;;;;15.73;62.22;99316.56;10342888;28;20125;-60
2021/07/24 03:11:02;;;;;;;20.35;15.07;;;;;;;15.82;62.08;99318.34;10340075;28;20046;-60
2021/07/24 03:16:04;;;;;;;21.13;15.25;;;;;;;15.76;62.38;99332.09;10358778;28;20141;-60
2021/07/24 03:21:05;;;;;;;22.80;15.18;;;;;;;15.77;62.46;99339.06;10346996;28;20046;-60
2021/07/24 03:26:08;;;;;;;19.70;13.88;;;;;;;15.85;62.15;99328.63;10341279;28;20058;-60
2021/07/24 03:31:10;;;;;;;20.13;15.60;;;;;;;15.75;62.87;99327.81;10341684;28;20137;-60
2021/07/24 03:36:12;;;;;;;17.10;14.40;;;;;;;15.70;62.86;99329.19;10361495;28;20056;-60
2021/07/24 03:41:13;;;;;;;21.63;15.40;;;;;;;15.85;62.87;99333.06;10329769;28;20069;-60
2021/07/24 03:46:16;;;;;;;16.95;13.73;;;;;;;16.11;62.22;99332.38;10336938;28;20593;-60
2021/07/24 03:51:18;;;;;;;20.23;14.23;;;;;;;16.32;61.61;99352.47;10358137;28;20054;-60
2021/07/24 03:56:21;;;;;;;19.80;15.90;;;;;;;16.38;61.55;99349.25;10355342;28;20133;-60
2021/07/24 04:01:25;;;;;;;21.52;15.32;;;;;;;16.39;61.39;99348.25;10361560;28;20038;-60
2021/07/24 04:06:27;;;;;;;21.52;15.90;;;;;;;16.35;61.52;99352.16;10357085;28;20054;-60
2021/07/24 04:11:29;;;;;;;18.13;14.23;;;;;;;16.50;61.52;99366.63;10336516;28;20437;-60
2021/07/24 04:16:33;;;;;;;20.00;13.35;;;;;;;16.95;60.70;99380.81;10360269;28;20353;-60
2021/07/24 04:21:35;;;;;;;17.45;13.57;;;;;;;17.35;59.71;99369.91;10358466;28;20081;-60
2021/07/24 04:26:36;;;;;;;18.67;13.13;;;;;;;17.67;58.78;99384.31;10347234;28;20505;-60
2021/07/24 04:31:38;;;;;;;16.08;12.20;;;;;;;18.27;57.85;99385.41;10360710;28;20148;-60
2021/07/24 04:36:43;;;;;;;20.77;12.43;;;;;;;18.66;56.65;99372.63;10348436;28;20049;-60
2021/07/24 04:41:44;;;;;;;17.75;13.20;;;;;;;19.52;55.26;99360.94;10352977;28;20081;-60
2021/07/24 04:46:46;;;;;;;17.17;13.07;;;;;;;20.84;52.13;99348.19;10337210;28;20050;-60
2021/07/24 04:51:48;;;;;;;15.35;11.88;;;;;;;21.41;50.67;99313.38;10351449;28;20052;-60
2021/07/24 04:56:50;;;;;;;15.27;10.93;;;;;;;22.01;49.07;99300.13;10356678;28;20129;-60
2021/07/24 05:01:52;;;;;;;13.10;11.35;;;;;;;22.01;48.36;99292.13;10359785;28;20175;-60
2021/07/24 05:06:55;;;;;;;14.23;11.55;;;;;;;21.80;48.33;99274.19;10347751;28;20210;-60
2021/07/24 05:11:57;;;;;;;14.48;10.63;;;;;;;21.45;48.63;99262.31;10350235;28;20545;-60
2021/07/24 05:17:12;;;;;;;16.08;11.27;;;;;;;21.44;48.98;99246.50;10347778;28;20141;-60
2021/07/24 05:22:14;;;;;;;12.00;10.57;;;;;;;21.45;48.70;99245.50;10355092;28;20136;-60
2021/07/24 05:27:16;;;;;;;15.40;10.57;;;;;;;21.09;49.31;99237.22;10331925;28;20161;-60
2021/07/24 05:32:19;;;;;;;13.73;10.45;;;;;;;21.52;48.63;99222.50;10339396;28;20088;-60
2021/07/24 05:37:20;;;;;;;11.70;10.00;;;;;;;21.42;49.04;99213.94;10358642;28;20052;-60
2021/07/24 05:42:23;;;;;;;15.38;10.52;;;;;;;21.08;49.59;99217.81;10326576;28;20509;-60
2021/07/24 05:47:25;;;;;;;13.45;10.52;;;;;;;21.04;49.59;99211.19;10358341;28;20454;-60
2021/07/24 05:52:26;;;;;;;14.75;10.70;;;;;;;20.83;50.03;99199.50;10327622;28;20133;-61
2021/07/24 05:57:28;;;;;;;12.63;9.57;;;;;;;21.24;49.71;99232.81;10352410;28;20056;-60
2021/07/24 06:02:30;;;;;;;12.02;9.38;;;;;;;21.46;49.49;99255.97;10361848;28;20072;-60
2021/07/24 06:07:32;;;;;;;17.92;9.20;;;;;;;21.64;48.94;99263.69;10347097;28;20052;-60
2021/07/24 06:12:33;;;;;;;13.13;9.20;;;;;;;21.40;49.66;99250.53;10360095;28;20073;-60
2021/07/24 06:17:35;;;;;;;12.93;9.13;;;;;;;21.91;49.01;99252.44;10339989;28;20050;-60
2021/07/24 06:22:38;;;;;;;13.68;9.38;;;;;;;22.00;47.97;99229.25;10348052;28;20045;-60
2021/07/24 06:27:41;;;;;;;11.50;8.80;;;;;;;22.10;48.10;99222.69;10364478;28;20132;-60
2021/07/24 06:32:43;;;;;;;12.90;8.75;;;;;;;22.05;47.88;99259.66;10357148;28;20053;-60
2021/07/24 06:37:45;;;;;;;13.90;9.27;;;;;;;21.83;48.56;99240.06;10386118;28;20476;-60
2021/07/24 06:42:47;;;;;;;14.38;9.02;;;;;;;21.50;49.20;99233.31;10328472;28;20322;-61
2021/07/24 06:47:49;;;;;;;15.57;8.35;;;;;;;21.19;49.23;99250.31;10352973;28;20054;-61
2021/07/24 06:52:52;;;;;;;13.57;9.35;;;;;;;21.13;49.35;99253.69;10346401;28;20498;-61
2021/07/24 06:57:54;;;;;;;17.27;9.15;;;;;;;21.11;49.37;99221.13;10363483;28;20129;-61
2021/07/24 07:03:00;;;;;;;11.80;9.30;;;;;;;21.20;49.51;99214.72;10358946;28;20043;-61
2021/07/24 07:08:02;;;;;;;13.15;8.88;;;;;;;21.64;48.51;99213.13;10349861;28;20440;-61
2021/07/24 07:13:04;;;;;;;14.75;9.25;;;;;;;21.82;48.43;99189.66;10345102;28;20042;-61
2021/07/24 07:18:06;;;;;;;13.82;8.45;;;;;;;22.12;48.04;99206.53;10346953;28;20406;-60
2021/07/24 07:23:07;;;;;;;12.70;8.25;;;;;;;22.76;46.83;99215.63;10335361;28;20121;-60
2021/07/24 07:28:10;;;;;;;13.70;8.35;;;;;;;23.14;46.49;99214.44;10360450;28;20164;-61
2021/07/24 07:33:12;;;;;;;15.40;9.18;;;;;;;23.50;45.85;99228.56;10331920;28;20053;-61
2021/07/24 07:38:13;;;;;;;13.73;8.48;;;;;;;23.58;44.84;99239.13;10331524;28;20542;-61
2021/07/24 07:43:16;;;;;;;14.02;8.40;;;;;;;24.64;42.56;99238.88;10357088;28;20112;-61
2021/07/24 07:48:18;;;;;;;13.02;8.52;;;;;;;25.92;39.88;99235.97;10331096;28;20146;-61
2021/07/24 07:53:19;;;;;;;13.00;8.27;;;;;;;26.43;38.40;99229.94;10357609;28;20056;-61
2021/07/24 07:58:23;;;;;;;14.80;8.15;;;;;;;26.27;38.63;99225.88;10355220;28;20141;-61
2021/07/24 08:03:27;;;;;;;9.88;7.85;;;;;;;26.94;38.23;99221.94;10330892;28;20522;-61
2021/07/24 08:08:29;;;;;;;11.52;8.48;;;;;;;26.44;37.82;99205.63;10339241;28;20042;-60
2021/07/24 08:13:31;;;;;;;14.52;8.85;;;;;;;25.75;38.97;99210.63;10329083;28;20117;-60
2021/07/24 08:18:32;;;;;;;10.95;8.60;;;;;;;25.81;39.00;99209.78;10355456;28;20093;-61
2021/07/24 08:23:34;;;;;;;11.27;8.63;;;;;;;26.22;38.57;99193.47;10390111;28;20049;-61
2021/07/24 08:28:36;;;;;;;11.68;8.45;;;;;;;25.64;40.11;99192.50;10365192;28;20047;-61
2021/07/24 08:33:38;;;;;;;12.93;9.00;;;;;;;24.90;41.43;99185.53;10393914;28;20465;-61
2021/07/24 08:38:39;;;;;;;11.40;8.45;;;;;;;24.60;42.67;99184.16;10391016;28;20133;-61
2021/07/24 08:43:45;;;;;;;14.13;9.32;;;;;;;24.45;42.71;99194.19;10382013;28;20136;-60
2021/07/24 08:48:46;;;;;;;14.00;9.65;;;;;;;24.23;43.33;99188.91;10382724;28;20038;-60
2021/07/24 08:53:48;;;;;;;14.75;9.57;;;;;;;23.65;44.62;99167.94;10359243;28;20057;-60
2021/07/24 08:58:56;;;;;;;14.98;9.90;;;;;;;23.42;45.34;99167.31;10355880;28;20065;-60
2021/07/24 09:04:03;;;;;;;12.32;9.55;;;;;;;23.41;45.76;99171.03;10394783;28;20706;-61
2021/07/24 09:09:05;;;;;;;13.13;9.80;;;;;;;23.46;45.92;99163.25;10375993;28;20049;-60
2021/07/24 09:14:07;;;;;;;15.18;10.05;;;;;;;23.30;46.83;99167.00;10388702;28;20128;-60
2021/07/24 09:19:09;;;;;;;17.40;9.85;;;;;;;23.54;46.87;99187.13;10380227;28;20474;-60
2021/07/24 09:24:20;;;;;;;17.17;10.50;;;;;;;24.15;44.38;99173.03;10373531;28;20153;-60
2021/07/24 09:29:22;;;;;;;19.48;10.32;;;;;;;24.63;42.92;99149.84;10357121;28;20541;-60
2021/07/24 09:34:40;;;;;;;15.55;10.23;;;;;;;24.29;43.79;99137.34;10328129;28;20050;-60
2021/07/24 09:39:42;;;;;;;16.02;9.98;;;;;;;24.05;44.63;99145.00;10338935;28;20403;-60
2021/07/24 09:44:44;;;;;;;16.15;9.65;;;;;;;24.05;45.12;99156.50;10326652;28;20052;-60
2021/07/24 09:49:46;;;;;;;17.20;10.23;;;;;;;23.93;46.28;99165.25;10330481;28;20073;-60
2021/07/24 09:54:48;;;;;;;15.98;10.00;;;;;;;23.81;47.34;99170.31;10353922;28;20048;-60
2021/07/24 09:59:50;;;;;;;16.80;10.27;;;;;;;23.77;46.58;99177.06;10359588;28;20133;-60
2021/07/24 10:04:53;;;;;;;16.52;9.25;;;;;;;23.61;47.01;99181.84;10334871;28;20046;-60
2021/07/24 10:10:04;;;;;;;13.50;10.18;;;;;;;23.13;48.62;99196.75;10329053;28;20050;-60
2021/07/24 10:15:07;;;;;;;14.25;11.02;;;;;;;23.16;50.15;99199.06;10348659;28;20124;-60
2021/07/24 10:20:10;;;;;;;13.70;10.48;;;;;;;23.18;50.53;99223.72;10364311;28;20125;-60
2021/07/24 10:25:11;;;;;;;14.45;9.98;;;;;;;23.37;50.37;99231.09;10375197;28;20041;-60
2021/07/24 10:30:14;;;;;;;14.15;9.65;;;;;;;23.18;51.05;99227.22;10397463;28;20074;-60
2021/07/24 10:35:16;;;;;;;16.80;10.02;;;;;;;22.97;51.73;99219.16;10377136;28;20128;-60
2021/07/24 10:40:20;;;;;;;16.10;10.25;;;;;;;22.78;51.94;99205.59;10396068;28;20121;-60
2021/07/24 10:45:34;;;;;;;17.13;10.05;;;;;;;22.84;52.31;99186.19;10385650;28;20045;-60
2021/07/24 10:50:54;;;;;;;18.27;10.80;;;;;;;23.37;50.57;99180.41;10394285;28;20049;-60
2021/07/24 10:55:56;;;;;;;;;;;;;;;23.49;51.06;99190.38;10413239;28;20056;-60
2021/07/24 11:00:59;;;;;;;12.68;10.70;;;;;;;24.15;50.27;99173.03;10380734;28;19925;-60
2021/07/24 11:06:26;;;;;;;15.63;10.20;;;;;;;25.03;46.88;99159.66;10377192;28;20103;-61
2021/07/24 11:11:38;;;;;;;16.20;10.30;;;;;;;25.84;43.03;99144.25;10368262;28;20125;-60
2021/07/24 11:17:08;;;;;;;14.57;10.77;;;;;;;25.68;42.72;99144.69;10390181;28;20490;-61
2021/07/24 11:22:20;;;;;;;13.43;10.82;;;;;;;25.93;42.01;99132.31;10380356;28;20421;-60
2021/07/24 11:27:28;;;;;;;16.50;11.10;;;;;;;25.79;43.56;99136.84;10396856;28;20110;-61
2021/07/24 11:32:35;;;;;;;26.33;11.23;;;;;;;25.70;42.58;99131.91;10411992;28;20124;-61
2021/07/24 11:37:45;;;;;;;16.05;11.45;;;;;;;25.72;42.38;99141.41;10363335;28;20099;-60
2021/07/24 11:43:10;;;;;;;16.35;10.45;;;;;;;25.34;43.26;99148.41;10344663;28;20052;-61
2021/07/24 11:48:16;;;;;;;15.13;10.77;;;;;;;25.13;45.40;99145.88;10338311;28;20133;-60
2021/07/24 11:53:20;;;;;;;15.27;10.73;;;;;;;25.60;43.56;99127.00;10361556;28;20077;-60
2021/07/24 11:58:23;;;;;;;15.07;9.82;;;;;;;25.33;42.99;99133.34;10348523;28;20503;-60
2021/07/24 12:03:30;;;;;;;15.45;10.30;;;;;;;24.87;44.29;99127.94;10350009;28;20121;-61
2021/07/24 12:08:36;;;;;;;16.88;10.35;;;;;;;24.58;46.00;99128.22;10343412;28;20050;-60
2021/07/24 12:13:38;;;;;;;16.73;10.07;;;;;;;24.46;45.79;99131.66;10347628;28;20137;-61
2021/07/24 12:18:51;;;;;;;14.77;11.05;;;;;;;24.42;47.39;99133.91;10353761;28;20046;-60
2021/07/24 12:23:58;;;;;;;14.48;10.95;;;;;;;24.52;51.06;99149.56;10327016;28;20142;-61
2021/07/24 12:29:20;;;;;;;14.60;11.10;;;;;;;24.26;51.72;99164.47;10356536;28;20446;-61
2021/07/24 12:34:23;;;;;;;20.23;13.18;;;;;;;24.05;54.96;99166.34;10338504;28;20045;-60
2021/07/24 12:39:31;;;;;;;13.45;11.20;;;;;;;23.74;54.46;99173.94;10352197;28;20140;-61
2021/07/24 12:44:54;;;;;;;17.33;9.70;;;;;;;23.05;56.36;99188.88;10337596;28;20046;-61
2021/07/24 12:49:56;;;;;;;13.25;8.73;;;;;;;22.79;55.73;99196.59;10359929;28;20055;-61
2021/07/24 12:55:03;;;;;;;13.88;8.73;;;;;;;22.47;56.90;99197.81;10368551;28;20073;-61
2021/07/24 13:00:07;;;;;;;11.57;8.60;;;;;;;22.27;57.53;99188.72;10366759;28;20133;-61
2021/07/24 13:05:11;;;;;;;16.60;9.13;;;;;;;22.26;58.83;99192.38;10374467;28;20565;-61
2021/07/24 13:10:13;;;;;;;15.18;7.93;;;;;;;22.45;57.98;99189.16;10372556;28;20045;-61
2021/07/24 13:15:15;;;;;;;9.40;6.43;;;;;;;22.48;57.73;99192.28;10357039;28;20383;-60
2021/07/24 13:20:17;;;;;;;9.20;5.53;;;;;;;22.56;57.10;99197.50;10357555;28;20050;-61
2021/07/24 13:30:20;;;;;;;6.95;5.05;;;;;;;23.68;55.69;99201.41;10357228;28;20553;-61
2021/07/24 13:35:22;;;;;;;5.95;4.90;;;;;;;24.11;55.79;99203.84;10355625;28;20571;-61
2021/07/24 13:40:24;;;;;;;6.75;5.18;;;;;;;24.24;55.12;99201.25;10339567;28;20120;-61
2021/07/24 13:45:25;;;;;;;7.13;4.72;;;;;;;24.32;54.16;99200.28;10357948;28;20128;-61
2021/07/24 13:50:28;;;;;;;6.90;4.65;;;;;;;24.08;54.43;99198.88;10358184;28;20501;-61
2021/07/24 13:55:30;;;;;;;6.13;4.80;;;;;;;23.74;54.29;99205.97;10358044;28;20237;-61
2021/07/24 14:00:31;;;;;;;6.55;5.07;;;;;;;23.32;54.79;99222.81;10355701;28;20160;-61
2021/07/24 14:05:33;;;;;;;7.80;5.53;;;;;;;22.78;56.30;99238.41;10366666;28;20053;-61
2021/07/24 14:10:35;;;;;;;7.50;5.43;;;;;;;22.73;56.21;99242.63;10350355;28;20088;-61
2021/07/24 14:15:39;;;;;;;6.00;4.60;;;;;;;22.56;56.27;99242.81;10368144;28;20069;-61
2021/07/24 14:20:46;;;;;;;8.48;5.70;;;;;;;22.50;57.06;99246.22;10359690;28;20609;-61
2021/07/24 14:25:48;;;;;;;8.95;6.65;;;;;;;22.49;56.56;99238.41;10341836;28;20047;-60
2021/07/24 14:30:49;;;;;;;11.65;6.65;;;;;;;22.45;56.25;99240.59;10362024;28;20223;-60
2021/07/24 14:35:52;;;;;;;11.60;8.57;;;;;;;22.59;56.30;99245.13;10366337;28;20137;-61
2021/07/24 14:40:58;;;;;;;12.43;8.93;;;;;;;22.68;55.54;99237.84;10359536;28;20129;-61
2021/07/24 14:46:00;;;;;;;9.88;7.85;;;;;;;22.68;55.54;99233.34;10363708;28;20537;-61
2021/07/24 14:51:04;;;;;;;10.70;8.50;;;;;;;22.59;55.08;99231.81;10356652;28;20137;-61
2021/07/24 14:56:13;;;;;;;11.50;8.85;;;;;;;22.46;54.93;99234.28;10353061;28;20129;-61
2021/07/24 15:01:16;;;;;;;11.33;8.93;;;;;;;22.47;54.82;99227.13;10357717;28;20191;-60
2021/07/24 15:06:18;;;;;;;11.80;9.43;;;;;;;22.96;54.09;99206.84;10352076;28;20129;-61
2021/07/24 15:11:19;;;;;;;11.40;8.85;;;;;;;23.30;53.46;99215.00;10364054;28;20054;-61
2021/07/24 15:16:21;;;;;;;12.13;8.63;;;;;;;23.57;52.21;99210.78;10350739;28;20058;-60
2021/07/24 15:21:23;;;;;;;11.07;8.80;;;;;;;23.64;52.32;99222.34;10363813;28;20041;-61
2021/07/24 15:26:25;;;;;;;12.52;9.07;;;;;;;23.41;52.93;99205.72;10347192;28;20475;-61
2021/07/24 15:31:27;;;;;;;11.75;9.32;;;;;;;23.36;53.29;99194.75;10352971;28;20172;-61
2021/07/24 15:36:28;;;;;;;10.23;8.98;;;;;;;23.44;53.77;99195.47;10357945;28;20047;-61
2021/07/24 15:41:30;;;;;;;13.00;9.45;;;;;;;23.36;53.78;99179.56;10362038;28;20053;-61
2021/07/24 15:46:32;;;;;;;13.23;9.13;;;;;;;23.63;52.16;99166.47;10360434;28;20417;-61
2021/07/24 15:51:35;;;;;;;13.15;9.30;;;;;;;23.88;51.20;99157.81;10357789;28;20065;-61
2021/07/24 15:56:37;;;;;;;12.45;8.57;;;;;;;23.97;51.32;99153.16;10358820;28;20134;-60
2021/07/24 16:01:40;;;;;;;10.48;8.60;;;;;;;24.10;50.10;99145.28;10362525;28;20490;-61
2021/07/24 16:06:42;;;;;;;11.32;8.20;;;;;;;23.52;51.04;99143.78;10335298;28;20047;-61
2021/07/24 16:11:44;;;;;;;11.68;8.35;;;;;;;23.28;52.17;99133.50;10338033;28;20047;-61
2021/07/24 16:16:46;;;;;;;11.02;8.93;;;;;;;23.21;52.01;99133.44;10329639;28;20046;-61
2021/07/24 16:21:47;;;;;;;13.90;8.93;;;;;;;23.42;52.42;99136.13;10364014;28;20050;-61
2021/07/24 16:26:50;;;;;;;11.18;9.32;;;;;;;23.31;51.61;99127.75;10344514;28;20077;-61
2021/07/24 16:31:51;;;;;;;13.18;8.57;;;;;;;23.13;53.45;99114.06;10351744;28;20422;-61
2021/07/24 16:36:53;;;;;;;10.82;8.82;;;;;;;23.29;52.04;99111.97;10366122;28;20060;-61
2021/07/24 16:41:55;;;;;;;10.70;8.70;;;;;;;22.97;52.46;99095.66;10365447;28;20137;-61
2021/07/24 16:46:56;;;;;;;11.68;8.35;;;;;;;22.66;53.85;99093.25;10355228;28;20092;-60
2021/07/24 16:51:58;;;;;;;10.02;8.15;;;;;;;22.84;53.18;99104.34;10347112;28;20434;-61
2021/07/24 16:57:00;;;;;;;13.23;8.95;;;;;;;22.77;54.88;99138.13;10353781;28;20051;-61
2021/07/24 17:02:02;;;;;;;13.07;8.80;;;;;;;22.70;55.21;99148.66;10359844;28;20125;-61
2021/07/24 17:07:05;;;;;;;11.20;8.20;;;;;;;22.72;54.67;99124.50;10353148;28;20049;-61
2021/07/24 17:12:07;;;;;;;11.02;8.27;;;;;;;23.12;53.77;99141.78;10358861;28;20101;-61
2021/07/24 17:17:10;;;;;;;12.25;8.32;;;;;;;23.27;53.68;99161.19;10338489;28;20366;-61
2021/07/24 17:22:12;;;;;;;10.07;7.88;;;;;;;23.26;53.74;99156.88;10351729;28;20446;-61
2021/07/24 17:27:13;;;;;;;11.77;8.77;;;;;;;23.23;53.95;99144.75;10351507;28;20144;-61
2021/07/24 17:32:15;;;;;;;10.60;7.97;;;;;;;23.18;53.53;99125.84;10336278;28;20062;-61
2021/07/24 17:37:17;;;;;;;10.38;7.82;;;;;;;23.14;53.43;99115.72;10329285;28;20490;-61
2021/07/24 17:42:19;;;;;;;12.90;8.18;;;;;;;23.05;53.74;99138.19;10346691;28;20129;-61
2021/07/24 17:47:21;;;;;;;12.00;9.20;;;;;;;22.93;53.77;99127.22;10371600;28;20393;-61
2021/07/24 17:52:22;;;;;;;11.05;8.80;;;;;;;22.85;53.96;99129.16;10340759;28;20152;-61
2021/07/24 17:57:25;;;;;;;13.90;8.85;;;;;;;22.69;54.59;99140.88;10359862;28;20160;-61
2021/07/24 18:02:26;;;;;;;11.40;8.13;;;;;;;22.72;55.02;99153.81;10363536;28;20133;-61
2021/07/24 18:07:29;;;;;;;10.85;8.38;;;;;;;22.52;55.73;99156.25;10345758;28;20103;-61
2021/07/24 18:12:31;;;;;;;10.50;8.45;;;;;;;22.36;56.77;99151.13;10362991;28;20160;-61
2021/07/24 18:17:32;;;;;;;15.05;9.00;;;;;;;22.21;56.93;99160.97;10362194;28;20136;-61
2021/07/24 18:22:34;;;;;;;12.13;8.27;;;;;;;22.17;57.31;99170.31;10362404;28;20147;-61
2021/07/24 18:27:36;;;;;;;11.77;8.93;;;;;;;22.10;57.63;99179.25;10361960;28;20165;-60
2021/07/24 18:32:39;;;;;;;11.35;9.20;;;;;;;21.91;57.89;99167.25;10360664;28;20455;-61
2021/07/24 18:37:41;;;;;;;12.25;9.73;;;;;;;21.69;59.41;99174.31;10361926;28;20145;-61
2021/07/24 18:42:43;;;;;;;12.27;9.10;;;;;;;21.61;59.02;99198.31;10362896;28;20073;-61
2021/07/24 18:47:45;;;;;;;11.75;9.32;;;;;;;21.57;59.61;99201.53;10363844;28;20075;-61
2021/07/24 18:52:47;;;;;;;11.88;9.65;;;;;;;21.18;60.47;99192.81;10368959;28;20478;-61
2021/07/24 18:57:49;;;;;;;10.88;9.18;;;;;;;21.15;60.64;99186.00;10367605;28;20133;-60
2021/07/24 19:02:51;;;;;;;12.25;10.02;;;;;;;20.96;61.17;99182.00;10368799;28;20145;-60
2021/07/24 19:07:53;;;;;;;13.20;10.18;;;;;;;20.72;61.34;99179.44;10368098;28;20042;-60
2021/07/24 19:12:57;;;;;;;11.90;10.02;;;;;;;20.42;61.66;99156.31;10369372;28;20108;-60
2021/07/24 19:18:00;;;;;;;11.93;9.50;;;;;;;20.28;62.11;99165.00;10367925;28;20560;-60
2021/07/24 19:23:02;;;;;;;13.57;10.65;;;;;;;20.36;62.55;99157.00;10328187;28;20526;-60
2021/07/24 19:28:04;;;;;;;15.05;10.70;;;;;;;20.36;62.89;99154.34;10357814;28;20045;-60
2021/07/24 19:33:06;;;;;;;18.45;11.23;;;;;;;20.16;62.86;99150.44;10365021;28;20132;-60
2021/07/24 19:38:07;;;;;;;15.80;10.38;;;;;;;19.95;63.94;99153.66;10365321;28;20308;-61
2021/07/24 19:43:13;;;;;;;14.30;11.50;;;;;;;20.14;63.68;99168.38;10364168;28;20044;-61
2021/07/24 19:48:15;;;;;;;13.48;10.20;;;;;;;20.26;63.73;99182.94;10364747;28;20085;-60
2021/07/24 19:53:17;;;;;;;12.15;10.20;;;;;;;20.14;63.25;99160.41;10341372;28;20050;-60
2021/07/24 19:58:18;;;;;;;13.18;9.80;;;;;;;19.92;63.97;99171.75;10383672;28;20499;-60
2021/07/24 20:03:20;;;;;;;13.00;9.68;;;;;;;19.98;63.57;99179.88;10343583;28;20510;-60
2021/07/24 20:08:22;;;;;;;15.02;10.02;;;;;;;19.97;63.48;99183.50;10350809;28;20046;-60
2021/07/24 20:13:24;;;;;;;15.48;11.45;;;;;;;19.72;64.06;99173.09;10384344;28;20477;-60
2021/07/24 20:18:25;;;;;;;21.08;11.82;;;;;;;19.49;64.76;99167.63;10367675;28;20129;-60
2021/07/24 20:23:28;;;;;;;14.93;10.88;;;;;;;19.62;64.33;99191.00;10364622;28;20042;-60
2021/07/24 20:28:30;;;;;;;14.88;10.60;;;;;;;19.59;64.07;99193.97;10363593;28;20089;-60
2021/07/24 20:33:35;;;;;;;14.98;12.55;;;;;;;19.31;64.51;99190.84;10364874;28;20056;-60
2021/07/24 20:38:40;;;;;;;15.13;12.23;;;;;;;19.27;64.93;99200.97;10364480;28;20050;-60
2021/07/24 20:43:41;;;;;;;18.33;12.85;;;;;;;19.06;65.31;99210.34;10363102;28;20466;-60
2021/07/24 20:48:43;;;;;;;15.10;12.00;;;;;;;18.82;65.36;99215.56;10363947;28;20050;-60
2021/07/24 20:53:45;;;;;;;13.50;9.80;;;;;;;18.82;65.19;99210.25;10362995;28;20069;-60
2021/07/24 20:58:46;;;;;;;16.52;12.35;;;;;;;18.82;65.49;99210.25;10362930;28;20108;-60
2021/07/24 21:03:48;;;;;;;15.07;13.20;;;;;;;18.80;65.53;99206.94;10362022;28;20046;-60
2021/07/24 21:08:51;;;;;;;16.30;11.20;;;;;;;18.85;65.83;99196.69;10363147;28;20085;-60
2021/07/24 21:13:52;;;;;;;15.63;11.73;;;;;;;18.83;65.45;99196.84;10360964;28;20052;-60
2021/07/24 21:18:54;;;;;;;15.43;12.25;;;;;;;18.72;65.49;99191.84;10362965;28;20073;-60
2021/07/24 21:23:56;;;;;;;15.18;12.85;;;;;;;18.73;65.83;99193.50;10377931;28;20117;-60
2021/07/24 21:28:58;;;;;;;19.30;14.50;;;;;;;18.40;65.85;99195.19;10362795;28;20049;-60
2021/07/24 21:34:01;;;;;;;19.42;13.95;;;;;;;18.12;66.84;99196.34;10362312;28;20148;-60
2021/07/24 21:39:03;;;;;;;17.10;12.80;;;;;;;18.25;66.37;99207.38;10362369;28;20513;-60
2021/07/24 21:44:05;;;;;;;13.70;10.10;;;;;;;18.44;66.15;99215.06;10361993;28;20461;-60
2021/07/24 21:49:06;;;;;;;18.83;13.38;;;;;;;18.48;65.87;99227.00;10362224;28;20081;-60
2021/07/24 21:54:08;;;;;;;19.92;14.25;;;;;;;18.34;65.76;99229.44;10361995;28;20129;-60
2021/07/24 21:59:10;;;;;;;15.50;12.60;;;;;;;18.22;65.64;99222.75;10362345;28;20085;-60
2021/07/24 22:04:13;;;;;;;16.42;12.45;;;;;;;18.06;66.00;99227.91;10361991;28;20121;-60
2021/07/24 22:09:15;;;;;;;21.92;15.05;;;;;;;18.01;65.77;99225.75;10358486;28;20148;-60
2021/07/24 22:14:17;;;;;;;20.17;13.98;;;;;;;17.79;66.01;99227.06;10360063;28;20161;-60
2021/07/24 22:19:20;;;;;;;14.85;12.23;;;;;;;17.59;66.96;99227.38;10362303;28;20104;-60
2021/07/24 22:24:22;;;;;;;20.17;14.45;;;;;;;17.74;66.79;99233.81;10367972;28;20108;-60
2021/07/24 22:29:24;;;;;;;18.08;12.60;;;;;;;17.72;66.28;99227.84;10370641;28;20124;-60
2021/07/24 22:34:25;;;;;;;16.80;12.38;;;;;;;17.75;66.86;99228.34;10369799;28;20129;-60
2021/07/24 22:39:27;;;;;;;13.93;12.10;;;;;;;17.82;66.62;99208.25;10369690;28;20042;-60
2021/07/24 22:44:29;;;;;;;25.75;15.25;;;;;;;17.85;66.19;99210.56;10369598;28;20590;-60
2021/07/24 22:49:30;;;;;;;35.90;16.50;;;;;;;17.76;66.28;99216.81;10369300;28;20398;-60
2021/07/24 22:54:32;;;;;;;25.65;16.70;;;;;;;17.54;66.44;99217.31;10368771;28;20723;-60
2021/07/24 22:59:34;;;;;;;14.35;12.05;;;;;;;17.54;66.61;99221.75;10368927;28;20112;-60
2021/07/24 23:04:36;;;;;;;18.13;13.40;;;;;;;17.69;66.65;99220.19;10368796;28;20421;-60
2021/07/24 23:09:37;;;;;;;17.08;13.07;;;;;;;17.80;66.42;99223.44;10367333;28;20137;-60
2021/07/24 23:14:39;;;;;;;17.10;11.77;;;;;;;17.92;66.40;99217.88;10361638;28;20391;-60
2021/07/24 23:19:41;;;;;;;19.83;14.13;;;;;;;17.94;66.58;99223.84;10366895;28;20311;-60